<?xml version="1.0" encoding="UTF-8"?>
<gpx version="1.1" creator="2bulu-scraper" xmlns="http://www.topografix.com/GPX/1/1">
  <metadata><name>翠屏山野穿路线半天</name><desc>source: 2bulu.com trackId=82622800; exported 2026-09-01T19:17:02.145Z</desc>
    <bounds minlat="28.7657649" minlon="104.6005571" maxlat="28.775292" maxlon="104.6167808"/>
    <link href="https://www.2bulu.com/track/t-JXEq4%252FR%252B%252BQbp%252FR2KBg5Tzw%253D%253D.htm"><text>2bulu 源页面</text></link>
  </metadata>
  <wpt lat="28.771165" lon="104.6143367"><ele>241</ele><name>
        </name></wpt>
  <wpt lat="28.7713378" lon="104.6133956"><ele>265</ele><name>
        </name></wpt>
  <wpt lat="28.7722931" lon="104.6118228"><ele>280</ele><name>
        </name></wpt>
  <wpt lat="28.7732057" lon="104.6116444"><ele>287</ele><name>
        </name></wpt>
  <wpt lat="28.7738217" lon="104.61059"><ele>307</ele><name>
        </name></wpt>
  <wpt lat="28.773959" lon="104.6090546"><ele>350</ele><name>
        </name></wpt>
  <wpt lat="28.7744465" lon="104.6064079"><ele>335</ele><name>
        </name></wpt>
  <wpt lat="28.7742511" lon="104.6041747"><ele>333</ele><name>
        </name></wpt>
  <wpt lat="28.7742286" lon="104.6035373"><ele>332</ele><name>
        </name></wpt>
  <wpt lat="28.7731814" lon="104.6024786"><ele>330</ele><name>
        </name></wpt>
  <wpt lat="28.7728638" lon="104.6024481"><ele>328</ele><name>
        </name></wpt>
  <wpt lat="28.7697715" lon="104.6011327"><ele>349</ele><name>
        </name></wpt>
  <wpt lat="28.7677349" lon="104.600664"><ele>363</ele><name>
        </name></wpt>
  <wpt lat="28.7666377" lon="104.6013298"><ele>362</ele><name>
        </name></wpt>
  <wpt lat="28.7659011" lon="104.6018282"><ele>382</ele><name>
        </name></wpt>
  <wpt lat="28.7662208" lon="104.6027964"><ele>404</ele><name>
        </name></wpt>
  <wpt lat="28.7684741" lon="104.6071092"><ele>380</ele><name>
        </name></wpt>
  <wpt lat="28.7686644" lon="104.6074614"><ele>371</ele><name>
        </name></wpt>
  <wpt lat="28.7752715" lon="104.61131"><ele>350</ele><name>
        </name></wpt>
  <trk><name>翠屏山野穿路线半天</name>
      <trkseg>
        <trkpt lat="28.7712483" lon="104.6144083"><ele>230</ele><time>2026-04-17T21:37:38.000Z</time></trkpt>
        <trkpt lat="28.7712483" lon="104.6144083"><ele>230</ele><time>2026-04-17T21:37:42.000Z</time></trkpt>
        <trkpt lat="28.771165" lon="104.6143367"><ele>230</ele><time>2026-04-17T21:37:47.000Z</time></trkpt>
        <trkpt lat="28.771165" lon="104.6143367"><ele>230</ele><time>2026-04-17T21:37:50.000Z</time></trkpt>
        <trkpt lat="28.7711818" lon="104.6142453"><ele>234.6</ele><time>2026-04-17T21:38:38.000Z</time></trkpt>
        <trkpt lat="28.7712472" lon="104.6141722"><ele>240.41</ele><time>2026-04-17T21:38:48.000Z</time></trkpt>
        <trkpt lat="28.7712217" lon="104.6140848"><ele>244.84</ele><time>2026-04-17T21:38:58.000Z</time></trkpt>
        <trkpt lat="28.7711382" lon="104.6140981"><ele>247.96</ele><time>2026-04-17T21:39:10.000Z</time></trkpt>
        <trkpt lat="28.7710868" lon="104.6140902"><ele>249.83</ele><time>2026-04-17T21:39:24.000Z</time></trkpt>
        <trkpt lat="28.7710803" lon="104.6140078"><ele>250.76</ele><time>2026-04-17T21:39:38.000Z</time></trkpt>
        <trkpt lat="28.7710119" lon="104.6139929"><ele>251.47</ele><time>2026-04-17T21:39:46.000Z</time></trkpt>
        <trkpt lat="28.7709813" lon="104.6139058"><ele>252</ele><time>2026-04-17T21:40:00.000Z</time></trkpt>
        <trkpt lat="28.7710195" lon="104.6137979"><ele>252.73</ele><time>2026-04-17T21:40:10.000Z</time></trkpt>
        <trkpt lat="28.7710843" lon="104.6137065"><ele>253.66</ele><time>2026-04-17T21:40:18.000Z</time></trkpt>
        <trkpt lat="28.7711822" lon="104.6136451"><ele>254.45</ele><time>2026-04-17T21:40:30.000Z</time></trkpt>
        <trkpt lat="28.7712935" lon="104.6136002"><ele>255.51</ele><time>2026-04-17T21:40:40.000Z</time></trkpt>
        <trkpt lat="28.7713896" lon="104.6135624"><ele>256.71</ele><time>2026-04-17T21:40:50.000Z</time></trkpt>
        <trkpt lat="28.7713372" lon="104.6135482"><ele>257.95</ele><time>2026-04-17T21:41:06.000Z</time></trkpt>
        <trkpt lat="28.7712324" lon="104.6135889"><ele>259.65</ele><time>2026-04-17T21:41:16.000Z</time></trkpt>
        <trkpt lat="28.7711538" lon="104.6135425"><ele>260.96</ele><time>2026-04-17T21:41:28.000Z</time></trkpt>
        <trkpt lat="28.7711995" lon="104.6135003"><ele>260.46</ele><time>2026-04-17T21:41:40.000Z</time></trkpt>
        <trkpt lat="28.7712992" lon="104.6134861"><ele>261.04</ele><time>2026-04-17T21:41:50.000Z</time></trkpt>
        <trkpt lat="28.771408" lon="104.6134608"><ele>262.23</ele><time>2026-04-17T21:42:00.000Z</time></trkpt>
        <trkpt lat="28.7715054" lon="104.6134028"><ele>263.03</ele><time>2026-04-17T21:42:12.000Z</time></trkpt>
        <trkpt lat="28.7715086" lon="104.6133094"><ele>263.71</ele><time>2026-04-17T21:42:26.000Z</time></trkpt>
        <trkpt lat="28.7714361" lon="104.6133312"><ele>263.88</ele><time>2026-04-17T21:42:42.000Z</time></trkpt>
        <trkpt lat="28.7713378" lon="104.6133956"><ele>263.89</ele><time>2026-04-17T21:42:58.000Z</time></trkpt>
        <trkpt lat="28.7712478" lon="104.6133757"><ele>264.28</ele><time>2026-04-17T21:43:14.000Z</time></trkpt>
        <trkpt lat="28.7712573" lon="104.6132875"><ele>264.33</ele><time>2026-04-17T21:43:24.000Z</time></trkpt>
        <trkpt lat="28.7712763" lon="104.6132215"><ele>265.01</ele><time>2026-04-17T21:43:36.000Z</time></trkpt>
        <trkpt lat="28.7713008" lon="104.6131245"><ele>265.78</ele><time>2026-04-17T21:43:56.000Z</time></trkpt>
        <trkpt lat="28.7713145" lon="104.6129989"><ele>265.66</ele><time>2026-04-17T21:44:12.000Z</time></trkpt>
        <trkpt lat="28.7713262" lon="104.6128752"><ele>265.5</ele><time>2026-04-17T21:44:24.000Z</time></trkpt>
        <trkpt lat="28.7713681" lon="104.6127625"><ele>266.02</ele><time>2026-04-17T21:44:36.000Z</time></trkpt>
        <trkpt lat="28.7714072" lon="104.6126528"><ele>267.13</ele><time>2026-04-17T21:44:52.000Z</time></trkpt>
        <trkpt lat="28.7714967" lon="104.6126083"><ele>268.49</ele><time>2026-04-17T21:45:52.000Z</time></trkpt>
        <trkpt lat="28.7715867" lon="104.6126183"><ele>268.02</ele><time>2026-04-17T21:46:14.000Z</time></trkpt>
        <trkpt lat="28.7715229" lon="104.612634"><ele>266.59</ele><time>2026-04-17T21:46:28.000Z</time></trkpt>
        <trkpt lat="28.7715229" lon="104.612634"><ele>266.59</ele><time>2026-04-17T21:47:18.000Z</time></trkpt>
        <trkpt lat="28.7715229" lon="104.612634"><ele>266.59</ele><time>2026-04-17T21:47:19.000Z</time></trkpt>
        <trkpt lat="28.7715229" lon="104.612634"><ele>266.59</ele><time>2026-04-17T21:49:22.000Z</time></trkpt>
        <trkpt lat="28.7715717" lon="104.612575"><ele>267.46</ele><time>2026-04-17T21:49:25.000Z</time></trkpt>
        <trkpt lat="28.7715717" lon="104.612575"><ele>267.46</ele><time>2026-04-17T21:49:42.000Z</time></trkpt>
        <trkpt lat="28.7716483" lon="104.6125183"><ele>268.59</ele><time>2026-04-17T21:49:56.000Z</time></trkpt>
        <trkpt lat="28.7717433" lon="104.6124631"><ele>269.33</ele><time>2026-04-17T21:50:14.000Z</time></trkpt>
        <trkpt lat="28.7718197" lon="104.6123978"><ele>270.99</ele><time>2026-04-17T21:50:22.000Z</time></trkpt>
        <trkpt lat="28.7718941" lon="104.6123193"><ele>272.24</ele><time>2026-04-17T21:50:34.000Z</time></trkpt>
        <trkpt lat="28.7719644" lon="104.6122339"><ele>273.13</ele><time>2026-04-17T21:50:48.000Z</time></trkpt>
        <trkpt lat="28.7720435" lon="104.6121656"><ele>274.62</ele><time>2026-04-17T21:51:02.000Z</time></trkpt>
        <trkpt lat="28.7721063" lon="104.6120782"><ele>276.33</ele><time>2026-04-17T21:51:42.000Z</time></trkpt>
        <trkpt lat="28.7721716" lon="104.6119796"><ele>277.39</ele><time>2026-04-17T21:51:54.000Z</time></trkpt>
        <trkpt lat="28.7722499" lon="104.6119141"><ele>277.05</ele><time>2026-04-17T21:52:04.000Z</time></trkpt>
        <trkpt lat="28.7722931" lon="104.6118228"><ele>276.9</ele><time>2026-04-17T21:52:18.000Z</time></trkpt>
        <trkpt lat="28.772348" lon="104.6117384"><ele>278.19</ele><time>2026-04-17T21:52:40.000Z</time></trkpt>
        <trkpt lat="28.7723724" lon="104.6116385"><ele>280.3</ele><time>2026-04-17T21:52:56.000Z</time></trkpt>
        <trkpt lat="28.7723973" lon="104.6115305"><ele>281.55</ele><time>2026-04-17T21:53:12.000Z</time></trkpt>
        <trkpt lat="28.7724628" lon="104.6114365"><ele>281.53</ele><time>2026-04-17T21:53:34.000Z</time></trkpt>
        <trkpt lat="28.7725555" lon="104.61139"><ele>282.98</ele><time>2026-04-17T21:53:46.000Z</time></trkpt>
        <trkpt lat="28.772635" lon="104.6113192"><ele>285.57</ele><time>2026-04-17T21:54:12.000Z</time></trkpt>
        <trkpt lat="28.772721" lon="104.6112543"><ele>288.94</ele><time>2026-04-17T21:54:22.000Z</time></trkpt>
        <trkpt lat="28.7728027" lon="104.6111964"><ele>291.37</ele><time>2026-04-17T21:54:34.000Z</time></trkpt>
        <trkpt lat="28.7728959" lon="104.611167"><ele>292.16</ele><time>2026-04-17T21:54:46.000Z</time></trkpt>
        <trkpt lat="28.7729881" lon="104.6111061"><ele>292.48</ele><time>2026-04-17T21:55:26.000Z</time></trkpt>
        <trkpt lat="28.7730756" lon="104.6111332"><ele>292.1</ele><time>2026-04-17T21:55:42.000Z</time></trkpt>
        <trkpt lat="28.7730696" lon="104.6112358"><ele>291.11</ele><time>2026-04-17T21:56:02.000Z</time></trkpt>
        <trkpt lat="28.7730057" lon="104.6113277"><ele>289.64</ele><time>2026-04-17T21:56:14.000Z</time></trkpt>
        <trkpt lat="28.772991" lon="104.6114331"><ele>288.51</ele><time>2026-04-17T21:56:26.000Z</time></trkpt>
        <trkpt lat="28.7729651" lon="104.6115392"><ele>287.69</ele><time>2026-04-17T21:56:40.000Z</time></trkpt>
        <trkpt lat="28.7729757" lon="104.6116433"><ele>287.31</ele><time>2026-04-17T21:56:56.000Z</time></trkpt>
        <trkpt lat="28.7730329" lon="104.611723"><ele>287</ele><time>2026-04-17T21:57:24.000Z</time></trkpt>
        <trkpt lat="28.7731157" lon="104.6117043"><ele>285.8</ele><time>2026-04-17T21:57:34.000Z</time></trkpt>
        <trkpt lat="28.7732057" lon="104.6116444"><ele>285.63</ele><time>2026-04-17T21:57:50.000Z</time></trkpt>
        <trkpt lat="28.7732939" lon="104.6115816"><ele>286.09</ele><time>2026-04-17T21:58:32.000Z</time></trkpt>
        <trkpt lat="28.7732939" lon="104.6115816"><ele>286.09</ele><time>2026-04-17T21:58:44.000Z</time></trkpt>
        <trkpt lat="28.7737533" lon="104.6109083"><ele>286.91</ele><time>2026-04-17T22:01:03.000Z</time></trkpt>
        <trkpt lat="28.7737533" lon="104.6109083"><ele>286.91</ele><time>2026-04-17T22:01:08.000Z</time></trkpt>
        <trkpt lat="28.773815" lon="104.61083"><ele>296.28</ele><time>2026-04-17T22:01:26.000Z</time></trkpt>
        <trkpt lat="28.7738696" lon="104.610746"><ele>305.58</ele><time>2026-04-17T22:01:44.000Z</time></trkpt>
        <trkpt lat="28.773887" lon="104.6106469"><ele>310.19</ele><time>2026-04-17T22:01:56.000Z</time></trkpt>
        <trkpt lat="28.773887" lon="104.6106469"><ele>310.19</ele><time>2026-04-17T22:02:31.000Z</time></trkpt>
        <trkpt lat="28.773887" lon="104.6106469"><ele>310.19</ele><time>2026-04-17T22:03:35.000Z</time></trkpt>
        <trkpt lat="28.773887" lon="104.6106469"><ele>310.19</ele><time>2026-04-17T22:04:07.000Z</time></trkpt>
        <trkpt lat="28.773887" lon="104.6106469"><ele>310.19</ele><time>2026-04-17T22:04:11.000Z</time></trkpt>
        <trkpt lat="28.773887" lon="104.6106469"><ele>310.19</ele><time>2026-04-17T22:04:43.000Z</time></trkpt>
        <trkpt lat="28.773887" lon="104.6106469"><ele>310.19</ele><time>2026-04-17T22:05:51.000Z</time></trkpt>
        <trkpt lat="28.773887" lon="104.6106469"><ele>310.19</ele><time>2026-04-17T22:06:23.000Z</time></trkpt>
        <trkpt lat="28.7738017" lon="104.6105583"><ele>311.79</ele><time>2026-04-17T22:06:40.000Z</time></trkpt>
        <trkpt lat="28.7738017" lon="104.6105583"><ele>311.79</ele><time>2026-04-17T22:06:48.000Z</time></trkpt>
        <trkpt lat="28.77386" lon="104.6104667"><ele>309.51</ele><time>2026-04-17T22:07:10.000Z</time></trkpt>
        <trkpt lat="28.7738788" lon="104.6103623"><ele>309.85</ele><time>2026-04-17T22:07:28.000Z</time></trkpt>
        <trkpt lat="28.7738289" lon="104.6102853"><ele>311.42</ele><time>2026-04-17T22:07:52.000Z</time></trkpt>
        <trkpt lat="28.7737411" lon="104.6102594"><ele>315.15</ele><time>2026-04-17T22:08:10.000Z</time></trkpt>
        <trkpt lat="28.7736396" lon="104.6101725"><ele>318.66</ele><time>2026-04-17T22:09:06.000Z</time></trkpt>
        <trkpt lat="28.7735811" lon="104.610075"><ele>324.61</ele><time>2026-04-17T22:09:24.000Z</time></trkpt>
        <trkpt lat="28.7735842" lon="104.6099702"><ele>328.56</ele><time>2026-04-17T22:09:38.000Z</time></trkpt>
        <trkpt lat="28.7736067" lon="104.6098566"><ele>330.95</ele><time>2026-04-17T22:09:52.000Z</time></trkpt>
        <trkpt lat="28.773645" lon="104.6097446"><ele>332.69</ele><time>2026-04-17T22:10:08.000Z</time></trkpt>
        <trkpt lat="28.7736824" lon="104.6096406"><ele>334.67</ele><time>2026-04-17T22:10:38.000Z</time></trkpt>
        <trkpt lat="28.7737181" lon="104.6095387"><ele>337.44</ele><time>2026-04-17T22:11:06.000Z</time></trkpt>
        <trkpt lat="28.7737633" lon="104.6094462"><ele>339.62</ele><time>2026-04-17T22:11:18.000Z</time></trkpt>
        <trkpt lat="28.7737839" lon="104.6093407"><ele>340.56</ele><time>2026-04-17T22:11:30.000Z</time></trkpt>
        <trkpt lat="28.773802" lon="104.6092297"><ele>341.91</ele><time>2026-04-17T22:11:40.000Z</time></trkpt>
        <trkpt lat="28.7738253" lon="104.6091259"><ele>343.32</ele><time>2026-04-17T22:11:50.000Z</time></trkpt>
        <trkpt lat="28.7738748" lon="104.609039"><ele>344.52</ele><time>2026-04-17T22:12:18.000Z</time></trkpt>
        <trkpt lat="28.773959" lon="104.6090546"><ele>345.8</ele><time>2026-04-17T22:12:48.000Z</time></trkpt>
        <trkpt lat="28.7740231" lon="104.6090052"><ele>347.48</ele><time>2026-04-17T22:13:06.000Z</time></trkpt>
        <trkpt lat="28.7740748" lon="104.6089259"><ele>349.47</ele><time>2026-04-17T22:13:22.000Z</time></trkpt>
        <trkpt lat="28.7740703" lon="104.6088184"><ele>350.81</ele><time>2026-04-17T22:13:38.000Z</time></trkpt>
        <trkpt lat="28.7740495" lon="104.6087062"><ele>351.5</ele><time>2026-04-17T22:14:08.000Z</time></trkpt>
        <trkpt lat="28.7740311" lon="104.6085973"><ele>351.54</ele><time>2026-04-17T22:14:34.000Z</time></trkpt>
        <trkpt lat="28.7740363" lon="104.6084799"><ele>352.47</ele><time>2026-04-17T22:14:48.000Z</time></trkpt>
        <trkpt lat="28.7740363" lon="104.6084799"><ele>352.47</ele><time>2026-04-17T22:15:33.000Z</time></trkpt>
        <trkpt lat="28.7740477" lon="104.6083714"><ele>353.52</ele><time>2026-04-17T22:15:39.000Z</time></trkpt>
        <trkpt lat="28.7740477" lon="104.6083714"><ele>353.52</ele><time>2026-04-17T22:15:40.000Z</time></trkpt>
        <trkpt lat="28.7740732" lon="104.6082706"><ele>355.36</ele><time>2026-04-17T22:15:48.000Z</time></trkpt>
        <trkpt lat="28.774102" lon="104.6081701"><ele>356.28</ele><time>2026-04-17T22:15:56.000Z</time></trkpt>
        <trkpt lat="28.7741296" lon="104.6080668"><ele>356.5</ele><time>2026-04-17T22:16:02.000Z</time></trkpt>
        <trkpt lat="28.7741497" lon="104.6079572"><ele>356.72</ele><time>2026-04-17T22:16:12.000Z</time></trkpt>
        <trkpt lat="28.774173" lon="104.6078452"><ele>357.05</ele><time>2026-04-17T22:16:20.000Z</time></trkpt>
        <trkpt lat="28.7741739" lon="104.6077929"><ele>356.86</ele><time>2026-04-17T22:16:30.000Z</time></trkpt>
        <trkpt lat="28.7741954" lon="104.6077114"><ele>356.15</ele><time>2026-04-17T22:16:40.000Z</time></trkpt>
        <trkpt lat="28.7742068" lon="104.6076098"><ele>355.82</ele><time>2026-04-17T22:17:36.000Z</time></trkpt>
        <trkpt lat="28.7742253" lon="104.6075021"><ele>354.31</ele><time>2026-04-17T22:17:50.000Z</time></trkpt>
        <trkpt lat="28.7742491" lon="104.6073795"><ele>353.75</ele><time>2026-04-17T22:18:00.000Z</time></trkpt>
        <trkpt lat="28.7742697" lon="104.6072523"><ele>352.65</ele><time>2026-04-17T22:18:10.000Z</time></trkpt>
        <trkpt lat="28.774285" lon="104.6071724"><ele>351.3</ele><time>2026-04-17T22:18:20.000Z</time></trkpt>
        <trkpt lat="28.7742932" lon="104.6070781"><ele>350.09</ele><time>2026-04-17T22:18:36.000Z</time></trkpt>
        <trkpt lat="28.7742991" lon="104.6069601"><ele>349.19</ele><time>2026-04-17T22:18:44.000Z</time></trkpt>
        <trkpt lat="28.7743135" lon="104.606842"><ele>348.46</ele><time>2026-04-17T22:18:54.000Z</time></trkpt>
        <trkpt lat="28.7743339" lon="104.6067312"><ele>347.83</ele><time>2026-04-17T22:19:02.000Z</time></trkpt>
        <trkpt lat="28.77437" lon="104.6066212"><ele>346.87</ele><time>2026-04-17T22:19:12.000Z</time></trkpt>
        <trkpt lat="28.7744126" lon="104.6065151"><ele>344.3</ele><time>2026-04-17T22:19:20.000Z</time></trkpt>
        <trkpt lat="28.7744465" lon="104.6064079"><ele>341.16</ele><time>2026-04-17T22:19:28.000Z</time></trkpt>
        <trkpt lat="28.7744976" lon="104.606315"><ele>338.68</ele><time>2026-04-17T22:19:36.000Z</time></trkpt>
        <trkpt lat="28.7745599" lon="104.6062348"><ele>338.13</ele><time>2026-04-17T22:19:46.000Z</time></trkpt>
        <trkpt lat="28.7745101" lon="104.6062023"><ele>339.37</ele><time>2026-04-17T22:20:04.000Z</time></trkpt>
        <trkpt lat="28.7744284" lon="104.6062474"><ele>340.24</ele><time>2026-04-17T22:20:20.000Z</time></trkpt>
        <trkpt lat="28.7743517" lon="104.6063326"><ele>340.31</ele><time>2026-04-17T22:20:36.000Z</time></trkpt>
        <trkpt lat="28.7742641" lon="104.6063339"><ele>338.97</ele><time>2026-04-17T22:20:56.000Z</time></trkpt>
        <trkpt lat="28.7741972" lon="104.6062666"><ele>336.96</ele><time>2026-04-17T22:21:04.000Z</time></trkpt>
        <trkpt lat="28.7741359" lon="104.6061635"><ele>335.09</ele><time>2026-04-17T22:21:24.000Z</time></trkpt>
        <trkpt lat="28.774109" lon="104.6060508"><ele>332.9</ele><time>2026-04-17T22:21:32.000Z</time></trkpt>
        <trkpt lat="28.774113" lon="104.6059214"><ele>331.09</ele><time>2026-04-17T22:21:44.000Z</time></trkpt>
        <trkpt lat="28.7741451" lon="104.6058089"><ele>329.59</ele><time>2026-04-17T22:21:54.000Z</time></trkpt>
        <trkpt lat="28.7742208" lon="104.6057451"><ele>328.26</ele><time>2026-04-17T22:22:14.000Z</time></trkpt>
        <trkpt lat="28.7742858" lon="104.6056531"><ele>327.46</ele><time>2026-04-17T22:22:24.000Z</time></trkpt>
        <trkpt lat="28.7743365" lon="104.6055558"><ele>326.79</ele><time>2026-04-17T22:22:34.000Z</time></trkpt>
        <trkpt lat="28.7743729" lon="104.6054569"><ele>326.84</ele><time>2026-04-17T22:22:42.000Z</time></trkpt>
        <trkpt lat="28.7744004" lon="104.6053552"><ele>326.91</ele><time>2026-04-17T22:22:50.000Z</time></trkpt>
        <trkpt lat="28.7744417" lon="104.6052629"><ele>326.65</ele><time>2026-04-17T22:23:00.000Z</time></trkpt>
        <trkpt lat="28.774465" lon="104.6051468"><ele>326.54</ele><time>2026-04-17T22:23:12.000Z</time></trkpt>
        <trkpt lat="28.7744728" lon="104.6050329"><ele>326.95</ele><time>2026-04-17T22:23:20.000Z</time></trkpt>
        <trkpt lat="28.7744507" lon="104.6049234"><ele>327.36</ele><time>2026-04-17T22:23:30.000Z</time></trkpt>
        <trkpt lat="28.7744202" lon="104.6048147"><ele>327.64</ele><time>2026-04-17T22:23:38.000Z</time></trkpt>
        <trkpt lat="28.7743915" lon="104.6047077"><ele>327.96</ele><time>2026-04-17T22:23:48.000Z</time></trkpt>
        <trkpt lat="28.7743526" lon="104.6045986"><ele>328.19</ele><time>2026-04-17T22:23:58.000Z</time></trkpt>
        <trkpt lat="28.7743296" lon="104.6044825"><ele>328.33</ele><time>2026-04-17T22:24:08.000Z</time></trkpt>
        <trkpt lat="28.7743096" lon="104.6043739"><ele>328.7</ele><time>2026-04-17T22:24:18.000Z</time></trkpt>
        <trkpt lat="28.774284" lon="104.6042709"><ele>329.56</ele><time>2026-04-17T22:24:28.000Z</time></trkpt>
        <trkpt lat="28.7742511" lon="104.6041747"><ele>330.7</ele><time>2026-04-17T22:24:36.000Z</time></trkpt>
        <trkpt lat="28.7742232" lon="104.6040757"><ele>331.86</ele><time>2026-04-17T22:24:46.000Z</time></trkpt>
        <trkpt lat="28.7742313" lon="104.6039725"><ele>332.65</ele><time>2026-04-17T22:25:20.000Z</time></trkpt>
        <trkpt lat="28.7742539" lon="104.6038714"><ele>334.26</ele><time>2026-04-17T22:25:30.000Z</time></trkpt>
        <trkpt lat="28.7742671" lon="104.6037625"><ele>334.84</ele><time>2026-04-17T22:25:42.000Z</time></trkpt>
        <trkpt lat="28.7742452" lon="104.6036519"><ele>334.86</ele><time>2026-04-17T22:25:56.000Z</time></trkpt>
        <trkpt lat="28.7742286" lon="104.6035373"><ele>334.02</ele><time>2026-04-17T22:26:06.000Z</time></trkpt>
        <trkpt lat="28.7742282" lon="104.6034304"><ele>333.28</ele><time>2026-04-17T22:26:22.000Z</time></trkpt>
        <trkpt lat="28.7742268" lon="104.6033266"><ele>332.86</ele><time>2026-04-17T22:26:36.000Z</time></trkpt>
        <trkpt lat="28.7742268" lon="104.6033266"><ele>332.86</ele><time>2026-04-17T22:27:07.000Z</time></trkpt>
        <trkpt lat="28.7741517" lon="104.60324"><ele>332.27</ele><time>2026-04-17T22:28:17.000Z</time></trkpt>
        <trkpt lat="28.7741517" lon="104.60324"><ele>332.27</ele><time>2026-04-17T22:28:22.000Z</time></trkpt>
        <trkpt lat="28.7740917" lon="104.603155"><ele>332.11</ele><time>2026-04-17T22:28:32.000Z</time></trkpt>
        <trkpt lat="28.7740246" lon="104.6030629"><ele>331.85</ele><time>2026-04-17T22:28:40.000Z</time></trkpt>
        <trkpt lat="28.7739512" lon="104.6029774"><ele>331.87</ele><time>2026-04-17T22:28:50.000Z</time></trkpt>
        <trkpt lat="28.7738757" lon="104.6029063"><ele>331.67</ele><time>2026-04-17T22:29:00.000Z</time></trkpt>
        <trkpt lat="28.773791" lon="104.6028379"><ele>330.78</ele><time>2026-04-17T22:29:10.000Z</time></trkpt>
        <trkpt lat="28.7737108" lon="104.6027696"><ele>329.97</ele><time>2026-04-17T22:29:20.000Z</time></trkpt>
        <trkpt lat="28.7736305" lon="104.602712"><ele>329.29</ele><time>2026-04-17T22:29:32.000Z</time></trkpt>
        <trkpt lat="28.7735477" lon="104.6026643"><ele>328.52</ele><time>2026-04-17T22:29:42.000Z</time></trkpt>
        <trkpt lat="28.7734604" lon="104.6026219"><ele>327.95</ele><time>2026-04-17T22:29:52.000Z</time></trkpt>
        <trkpt lat="28.7733691" lon="104.6025717"><ele>327.5</ele><time>2026-04-17T22:30:02.000Z</time></trkpt>
        <trkpt lat="28.7732792" lon="104.6025166"><ele>327.11</ele><time>2026-04-17T22:30:14.000Z</time></trkpt>
        <trkpt lat="28.7731814" lon="104.6024786"><ele>327.37</ele><time>2026-04-17T22:30:26.000Z</time></trkpt>
        <trkpt lat="28.7730834" lon="104.602462"><ele>328.33</ele><time>2026-04-17T22:30:34.000Z</time></trkpt>
        <trkpt lat="28.7730321" lon="104.6024576"><ele>329.73</ele><time>2026-04-17T22:30:44.000Z</time></trkpt>
        <trkpt lat="28.7731009" lon="104.6024747"><ele>331.23</ele><time>2026-04-17T22:30:54.000Z</time></trkpt>
        <trkpt lat="28.7732136" lon="104.6025045"><ele>332.12</ele><time>2026-04-17T22:31:04.000Z</time></trkpt>
        <trkpt lat="28.7732136" lon="104.6025045"><ele>332.12</ele><time>2026-04-17T22:32:07.000Z</time></trkpt>
        <trkpt lat="28.77316" lon="104.6025183"><ele>333.1</ele><time>2026-04-17T22:32:21.000Z</time></trkpt>
        <trkpt lat="28.77316" lon="104.6025183"><ele>333.1</ele><time>2026-04-17T22:32:30.000Z</time></trkpt>
        <trkpt lat="28.7730533" lon="104.60248"><ele>332.28</ele><time>2026-04-17T22:32:40.000Z</time></trkpt>
        <trkpt lat="28.7729594" lon="104.6024628"><ele>331.34</ele><time>2026-04-17T22:32:48.000Z</time></trkpt>
        <trkpt lat="28.7728638" lon="104.6024481"><ele>330.03</ele><time>2026-04-17T22:32:56.000Z</time></trkpt>
        <trkpt lat="28.7728054" lon="104.6024292"><ele>329.07</ele><time>2026-04-17T22:33:06.000Z</time></trkpt>
        <trkpt lat="28.7727202" lon="104.6024273"><ele>329.73</ele><time>2026-04-17T22:33:24.000Z</time></trkpt>
        <trkpt lat="28.7726245" lon="104.6024177"><ele>331.48</ele><time>2026-04-17T22:33:56.000Z</time></trkpt>
        <trkpt lat="28.772534" lon="104.602388"><ele>332.35</ele><time>2026-04-17T22:34:02.000Z</time></trkpt>
        <trkpt lat="28.7724324" lon="104.6023583"><ele>332.76</ele><time>2026-04-17T22:34:10.000Z</time></trkpt>
        <trkpt lat="28.7723343" lon="104.6023197"><ele>332.99</ele><time>2026-04-17T22:34:20.000Z</time></trkpt>
        <trkpt lat="28.772252" lon="104.6022997"><ele>332.95</ele><time>2026-04-17T22:34:34.000Z</time></trkpt>
        <trkpt lat="28.772252" lon="104.6022997"><ele>332.95</ele><time>2026-04-17T22:35:05.000Z</time></trkpt>
        <trkpt lat="28.7721618" lon="104.602276"><ele>333.06</ele><time>2026-04-17T22:35:27.000Z</time></trkpt>
        <trkpt lat="28.7721618" lon="104.602276"><ele>333.06</ele><time>2026-04-17T22:35:28.000Z</time></trkpt>
        <trkpt lat="28.7720679" lon="104.602234"><ele>333.72</ele><time>2026-04-17T22:35:36.000Z</time></trkpt>
        <trkpt lat="28.7719878" lon="104.6021702"><ele>333.63</ele><time>2026-04-17T22:35:44.000Z</time></trkpt>
        <trkpt lat="28.7719116" lon="104.6021069"><ele>333.66</ele><time>2026-04-17T22:35:50.000Z</time></trkpt>
        <trkpt lat="28.7718263" lon="104.6020455"><ele>333.93</ele><time>2026-04-17T22:35:56.000Z</time></trkpt>
        <trkpt lat="28.7717432" lon="104.6019906"><ele>334.39</ele><time>2026-04-17T22:36:04.000Z</time></trkpt>
        <trkpt lat="28.7716537" lon="104.6019298"><ele>335.82</ele><time>2026-04-17T22:36:12.000Z</time></trkpt>
        <trkpt lat="28.7715606" lon="104.6018878"><ele>338.26</ele><time>2026-04-17T22:36:22.000Z</time></trkpt>
        <trkpt lat="28.7714653" lon="104.6018418"><ele>340.82</ele><time>2026-04-17T22:36:30.000Z</time></trkpt>
        <trkpt lat="28.7713833" lon="104.6017808"><ele>342.83</ele><time>2026-04-17T22:36:36.000Z</time></trkpt>
        <trkpt lat="28.771299" lon="104.6017253"><ele>344.28</ele><time>2026-04-17T22:36:44.000Z</time></trkpt>
        <trkpt lat="28.771202" lon="104.6016726"><ele>345.02</ele><time>2026-04-17T22:36:54.000Z</time></trkpt>
        <trkpt lat="28.7710977" lon="104.6016172"><ele>345.48</ele><time>2026-04-17T22:37:02.000Z</time></trkpt>
        <trkpt lat="28.7709963" lon="104.6015682"><ele>346.09</ele><time>2026-04-17T22:37:10.000Z</time></trkpt>
        <trkpt lat="28.7708918" lon="104.6015291"><ele>346.74</ele><time>2026-04-17T22:37:20.000Z</time></trkpt>
        <trkpt lat="28.77079" lon="104.6015021"><ele>347.15</ele><time>2026-04-17T22:37:28.000Z</time></trkpt>
        <trkpt lat="28.7706996" lon="104.6014688"><ele>347.47</ele><time>2026-04-17T22:37:34.000Z</time></trkpt>
        <trkpt lat="28.7706121" lon="104.6014158"><ele>347.66</ele><time>2026-04-17T22:37:42.000Z</time></trkpt>
        <trkpt lat="28.770525" lon="104.6013468"><ele>347.46</ele><time>2026-04-17T22:37:52.000Z</time></trkpt>
        <trkpt lat="28.7704388" lon="104.6012678"><ele>347.82</ele><time>2026-04-17T22:38:00.000Z</time></trkpt>
        <trkpt lat="28.7703564" lon="104.6012078"><ele>348.46</ele><time>2026-04-17T22:38:08.000Z</time></trkpt>
        <trkpt lat="28.7702565" lon="104.6012075"><ele>349.25</ele><time>2026-04-17T22:38:18.000Z</time></trkpt>
        <trkpt lat="28.7701598" lon="104.6012298"><ele>349.23</ele><time>2026-04-17T22:38:26.000Z</time></trkpt>
        <trkpt lat="28.7700526" lon="104.6012268"><ele>349.47</ele><time>2026-04-17T22:38:36.000Z</time></trkpt>
        <trkpt lat="28.7699518" lon="104.6011966"><ele>349.66</ele><time>2026-04-17T22:38:46.000Z</time></trkpt>
        <trkpt lat="28.7698616" lon="104.6011649"><ele>349.42</ele><time>2026-04-17T22:38:54.000Z</time></trkpt>
        <trkpt lat="28.7697715" lon="104.6011327"><ele>349.28</ele><time>2026-04-17T22:39:04.000Z</time></trkpt>
        <trkpt lat="28.7696721" lon="104.6011288"><ele>349.2</ele><time>2026-04-17T22:39:40.000Z</time></trkpt>
        <trkpt lat="28.7695665" lon="104.6011055"><ele>349.72</ele><time>2026-04-17T22:39:50.000Z</time></trkpt>
        <trkpt lat="28.7694728" lon="104.6010739"><ele>349.84</ele><time>2026-04-17T22:40:00.000Z</time></trkpt>
        <trkpt lat="28.7693801" lon="104.6010497"><ele>350.17</ele><time>2026-04-17T22:40:08.000Z</time></trkpt>
        <trkpt lat="28.7692762" lon="104.6010375"><ele>350.35</ele><time>2026-04-17T22:40:16.000Z</time></trkpt>
        <trkpt lat="28.7691742" lon="104.6010222"><ele>350.46</ele><time>2026-04-17T22:40:24.000Z</time></trkpt>
        <trkpt lat="28.7690709" lon="104.6010125"><ele>350.69</ele><time>2026-04-17T22:40:36.000Z</time></trkpt>
        <trkpt lat="28.7689785" lon="104.6009859"><ele>350.61</ele><time>2026-04-17T22:40:46.000Z</time></trkpt>
        <trkpt lat="28.768884" lon="104.6009528"><ele>350.43</ele><time>2026-04-17T22:40:56.000Z</time></trkpt>
        <trkpt lat="28.768792" lon="104.6009279"><ele>350.12</ele><time>2026-04-17T22:41:04.000Z</time></trkpt>
        <trkpt lat="28.768702" lon="104.6009019"><ele>349.98</ele><time>2026-04-17T22:41:14.000Z</time></trkpt>
        <trkpt lat="28.7686112" lon="104.6008891"><ele>350.08</ele><time>2026-04-17T22:41:26.000Z</time></trkpt>
        <trkpt lat="28.7685124" lon="104.6009024"><ele>350.09</ele><time>2026-04-17T22:41:42.000Z</time></trkpt>
        <trkpt lat="28.7684169" lon="104.6009234"><ele>350.57</ele><time>2026-04-17T22:41:52.000Z</time></trkpt>
        <trkpt lat="28.7683254" lon="104.6009315"><ele>351.14</ele><time>2026-04-17T22:42:02.000Z</time></trkpt>
        <trkpt lat="28.7682342" lon="104.6009248"><ele>351.68</ele><time>2026-04-17T22:42:22.000Z</time></trkpt>
        <trkpt lat="28.7681392" lon="104.6009002"><ele>352.59</ele><time>2026-04-17T22:42:34.000Z</time></trkpt>
        <trkpt lat="28.7680414" lon="104.6008672"><ele>354.7</ele><time>2026-04-17T22:42:44.000Z</time></trkpt>
        <trkpt lat="28.7679439" lon="104.6008277"><ele>357.11</ele><time>2026-04-17T22:42:54.000Z</time></trkpt>
        <trkpt lat="28.7678531" lon="104.6007894"><ele>359.47</ele><time>2026-04-17T22:43:04.000Z</time></trkpt>
        <trkpt lat="28.7677686" lon="104.6007176"><ele>361.12</ele><time>2026-04-17T22:43:14.000Z</time></trkpt>
        <trkpt lat="28.7677349" lon="104.600664"><ele>362.32</ele><time>2026-04-17T22:43:24.000Z</time></trkpt>
        <trkpt lat="28.7676804" lon="104.6005941"><ele>362.52</ele><time>2026-04-17T22:43:54.000Z</time></trkpt>
        <trkpt lat="28.7675953" lon="104.6005571"><ele>362.51</ele><time>2026-04-17T22:44:00.000Z</time></trkpt>
        <trkpt lat="28.7674922" lon="104.6005645"><ele>362.16</ele><time>2026-04-17T22:44:14.000Z</time></trkpt>
        <trkpt lat="28.7673852" lon="104.6005655"><ele>362.18</ele><time>2026-04-17T22:44:24.000Z</time></trkpt>
        <trkpt lat="28.7672823" lon="104.600601"><ele>362.4</ele><time>2026-04-17T22:44:36.000Z</time></trkpt>
        <trkpt lat="28.7671895" lon="104.6006517"><ele>363</ele><time>2026-04-17T22:44:46.000Z</time></trkpt>
        <trkpt lat="28.7671059" lon="104.6007253"><ele>363.43</ele><time>2026-04-17T22:44:56.000Z</time></trkpt>
        <trkpt lat="28.7670414" lon="104.6008227"><ele>364.11</ele><time>2026-04-17T22:45:08.000Z</time></trkpt>
        <trkpt lat="28.7670122" lon="104.6009301"><ele>365.91</ele><time>2026-04-17T22:45:18.000Z</time></trkpt>
        <trkpt lat="28.766973" lon="104.6010297"><ele>367.28</ele><time>2026-04-17T22:45:26.000Z</time></trkpt>
        <trkpt lat="28.7669201" lon="104.6011184"><ele>368.67</ele><time>2026-04-17T22:45:32.000Z</time></trkpt>
        <trkpt lat="28.7668687" lon="104.6012175"><ele>369.41</ele><time>2026-04-17T22:45:46.000Z</time></trkpt>
        <trkpt lat="28.7668233" lon="104.6013119"><ele>367.82</ele><time>2026-04-17T22:45:58.000Z</time></trkpt>
        <trkpt lat="28.7667337" lon="104.6013478"><ele>366.35</ele><time>2026-04-17T22:46:14.000Z</time></trkpt>
        <trkpt lat="28.7666377" lon="104.6013298"><ele>364.61</ele><time>2026-04-17T22:46:24.000Z</time></trkpt>
        <trkpt lat="28.7666377" lon="104.6013298"><ele>364.61</ele><time>2026-04-17T22:47:09.000Z</time></trkpt>
        <trkpt lat="28.7664739" lon="104.6014037"><ele>363.53</ele><time>2026-04-17T22:47:17.000Z</time></trkpt>
        <trkpt lat="28.7664739" lon="104.6014037"><ele>363.53</ele><time>2026-04-17T22:47:26.000Z</time></trkpt>
        <trkpt lat="28.7663717" lon="104.6014496"><ele>364.42</ele><time>2026-04-17T22:47:36.000Z</time></trkpt>
        <trkpt lat="28.7662763" lon="104.6015087"><ele>365.4</ele><time>2026-04-17T22:47:58.000Z</time></trkpt>
        <trkpt lat="28.7661958" lon="104.6015682"><ele>367.08</ele><time>2026-04-17T22:48:16.000Z</time></trkpt>
        <trkpt lat="28.7661171" lon="104.6015466"><ele>369.07</ele><time>2026-04-17T22:48:50.000Z</time></trkpt>
        <trkpt lat="28.766031" lon="104.6015074"><ele>370.29</ele><time>2026-04-17T22:48:58.000Z</time></trkpt>
        <trkpt lat="28.7659403" lon="104.6014747"><ele>371.28</ele><time>2026-04-17T22:49:16.000Z</time></trkpt>
        <trkpt lat="28.7658783" lon="104.6013998"><ele>371.07</ele><time>2026-04-17T22:49:26.000Z</time></trkpt>
        <trkpt lat="28.7658959" lon="104.6012984"><ele>371.04</ele><time>2026-04-17T22:49:40.000Z</time></trkpt>
        <trkpt lat="28.7659524" lon="104.6012004"><ele>372.06</ele><time>2026-04-17T22:49:52.000Z</time></trkpt>
        <trkpt lat="28.7660219" lon="104.6011103"><ele>372.94</ele><time>2026-04-17T22:50:08.000Z</time></trkpt>
        <trkpt lat="28.7660987" lon="104.6010196"><ele>374.3</ele><time>2026-04-17T22:50:20.000Z</time></trkpt>
        <trkpt lat="28.766185" lon="104.600949"><ele>376.28</ele><time>2026-04-17T22:50:34.000Z</time></trkpt>
        <trkpt lat="28.766225" lon="104.6008497"><ele>378.61</ele><time>2026-04-17T22:50:46.000Z</time></trkpt>
        <trkpt lat="28.7662264" lon="104.6007401"><ele>381.01</ele><time>2026-04-17T22:50:58.000Z</time></trkpt>
        <trkpt lat="28.7662264" lon="104.6007401"><ele>381.01</ele><time>2026-04-17T22:51:41.000Z</time></trkpt>
        <trkpt lat="28.7662264" lon="104.6007401"><ele>381.01</ele><time>2026-04-17T22:53:53.000Z</time></trkpt>
        <trkpt lat="28.7662264" lon="104.6007401"><ele>381.01</ele><time>2026-04-17T22:54:49.000Z</time></trkpt>
        <trkpt lat="28.7661667" lon="104.6008567"><ele>382.94</ele><time>2026-04-17T22:56:07.000Z</time></trkpt>
        <trkpt lat="28.7661667" lon="104.6008567"><ele>382.94</ele><time>2026-04-17T22:56:14.000Z</time></trkpt>
        <trkpt lat="28.7661667" lon="104.6008567"><ele>382.94</ele><time>2026-04-17T22:56:18.000Z</time></trkpt>
      </trkseg>
      <trkseg>
        <trkpt lat="28.765925" lon="104.6011367"><ele>382.49</ele><time>2026-04-17T23:07:04.000Z</time></trkpt>
        <trkpt lat="28.765925" lon="104.6011367"><ele>382.49</ele><time>2026-04-17T23:07:22.000Z</time></trkpt>
        <trkpt lat="28.7658618" lon="104.6012214"><ele>383.87</ele><time>2026-04-17T23:07:34.000Z</time></trkpt>
        <trkpt lat="28.7658" lon="104.6013109"><ele>384.53</ele><time>2026-04-17T23:07:46.000Z</time></trkpt>
        <trkpt lat="28.7657649" lon="104.601418"><ele>384.26</ele><time>2026-04-17T23:07:56.000Z</time></trkpt>
        <trkpt lat="28.765766" lon="104.6015241"><ele>383.12</ele><time>2026-04-17T23:08:06.000Z</time></trkpt>
        <trkpt lat="28.7657993" lon="104.6016266"><ele>381.69</ele><time>2026-04-17T23:08:22.000Z</time></trkpt>
        <trkpt lat="28.7658494" lon="104.6017335"><ele>380.32</ele><time>2026-04-17T23:08:34.000Z</time></trkpt>
        <trkpt lat="28.7659011" lon="104.6018282"><ele>379.88</ele><time>2026-04-17T23:08:50.000Z</time></trkpt>
        <trkpt lat="28.7659572" lon="104.601917"><ele>380.62</ele><time>2026-04-17T23:09:12.000Z</time></trkpt>
        <trkpt lat="28.7659658" lon="104.6020154"><ele>380.83</ele><time>2026-04-17T23:09:34.000Z</time></trkpt>
        <trkpt lat="28.7658947" lon="104.6020704"><ele>384.3</ele><time>2026-04-17T23:09:48.000Z</time></trkpt>
        <trkpt lat="28.7658641" lon="104.6021656"><ele>387.83</ele><time>2026-04-17T23:10:28.000Z</time></trkpt>
        <trkpt lat="28.7658751" lon="104.6022703"><ele>389.79</ele><time>2026-04-17T23:10:42.000Z</time></trkpt>
        <trkpt lat="28.7659195" lon="104.6023725"><ele>392.29</ele><time>2026-04-17T23:10:54.000Z</time></trkpt>
        <trkpt lat="28.7659741" lon="104.6024727"><ele>394.62</ele><time>2026-04-17T23:11:20.000Z</time></trkpt>
        <trkpt lat="28.7660272" lon="104.6025679"><ele>397.84</ele><time>2026-04-17T23:11:34.000Z</time></trkpt>
        <trkpt lat="28.7660701" lon="104.6026638"><ele>399.84</ele><time>2026-04-17T23:11:48.000Z</time></trkpt>
        <trkpt lat="28.7661484" lon="104.6027288"><ele>401.89</ele><time>2026-04-17T23:11:58.000Z</time></trkpt>
        <trkpt lat="28.7662208" lon="104.6027964"><ele>403.1</ele><time>2026-04-17T23:12:10.000Z</time></trkpt>
        <trkpt lat="28.7662816" lon="104.6028766"><ele>403.53</ele><time>2026-04-17T23:12:22.000Z</time></trkpt>
        <trkpt lat="28.7663224" lon="104.6029698"><ele>404.51</ele><time>2026-04-17T23:12:36.000Z</time></trkpt>
        <trkpt lat="28.7663801" lon="104.6030649"><ele>405.28</ele><time>2026-04-17T23:12:48.000Z</time></trkpt>
        <trkpt lat="28.766405" lon="104.6031812"><ele>406.15</ele><time>2026-04-17T23:13:04.000Z</time></trkpt>
        <trkpt lat="28.7664515" lon="104.6032909"><ele>407.2</ele><time>2026-04-17T23:13:16.000Z</time></trkpt>
        <trkpt lat="28.7664988" lon="104.6034004"><ele>407.37</ele><time>2026-04-17T23:13:28.000Z</time></trkpt>
        <trkpt lat="28.766561" lon="104.6034882"><ele>406.22</ele><time>2026-04-17T23:13:40.000Z</time></trkpt>
        <trkpt lat="28.7666036" lon="104.6035866"><ele>404.45</ele><time>2026-04-17T23:13:52.000Z</time></trkpt>
        <trkpt lat="28.7666429" lon="104.6036887"><ele>402.84</ele><time>2026-04-17T23:14:04.000Z</time></trkpt>
        <trkpt lat="28.7667068" lon="104.6037835"><ele>401.36</ele><time>2026-04-17T23:14:16.000Z</time></trkpt>
        <trkpt lat="28.7667826" lon="104.6038577"><ele>401.68</ele><time>2026-04-17T23:14:26.000Z</time></trkpt>
        <trkpt lat="28.7668641" lon="104.603916"><ele>403.06</ele><time>2026-04-17T23:14:40.000Z</time></trkpt>
        <trkpt lat="28.7669466" lon="104.6039648"><ele>405.14</ele><time>2026-04-17T23:14:50.000Z</time></trkpt>
        <trkpt lat="28.7670309" lon="104.6040029"><ele>406.85</ele><time>2026-04-17T23:15:14.000Z</time></trkpt>
        <trkpt lat="28.767084" lon="104.6040784"><ele>408.46</ele><time>2026-04-17T23:15:40.000Z</time></trkpt>
        <trkpt lat="28.7671454" lon="104.6041515"><ele>405.34</ele><time>2026-04-17T23:16:06.000Z</time></trkpt>
        <trkpt lat="28.76719" lon="104.6042435"><ele>405.24</ele><time>2026-04-17T23:16:18.000Z</time></trkpt>
        <trkpt lat="28.767225" lon="104.6043431"><ele>405.82</ele><time>2026-04-17T23:16:30.000Z</time></trkpt>
        <trkpt lat="28.7672627" lon="104.6044517"><ele>406.59</ele><time>2026-04-17T23:16:40.000Z</time></trkpt>
        <trkpt lat="28.7673212" lon="104.6045499"><ele>407.11</ele><time>2026-04-17T23:16:54.000Z</time></trkpt>
        <trkpt lat="28.7673953" lon="104.6046382"><ele>408.57</ele><time>2026-04-17T23:17:06.000Z</time></trkpt>
        <trkpt lat="28.7674353" lon="104.6047392"><ele>410.22</ele><time>2026-04-17T23:17:34.000Z</time></trkpt>
        <trkpt lat="28.7674591" lon="104.6048503"><ele>412.53</ele><time>2026-04-17T23:17:50.000Z</time></trkpt>
        <trkpt lat="28.7674405" lon="104.6049698"><ele>414.11</ele><time>2026-04-17T23:18:00.000Z</time></trkpt>
        <trkpt lat="28.7674543" lon="104.6050764"><ele>414.19</ele><time>2026-04-17T23:18:10.000Z</time></trkpt>
        <trkpt lat="28.767503" lon="104.6051763"><ele>413.21</ele><time>2026-04-17T23:18:20.000Z</time></trkpt>
        <trkpt lat="28.7675344" lon="104.605284"><ele>411.74</ele><time>2026-04-17T23:18:30.000Z</time></trkpt>
        <trkpt lat="28.7675487" lon="104.605395"><ele>410.65</ele><time>2026-04-17T23:18:40.000Z</time></trkpt>
        <trkpt lat="28.7675704" lon="104.6055096"><ele>409.77</ele><time>2026-04-17T23:18:52.000Z</time></trkpt>
        <trkpt lat="28.767632" lon="104.6055889"><ele>409.05</ele><time>2026-04-17T23:19:12.000Z</time></trkpt>
        <trkpt lat="28.767697" lon="104.6056788"><ele>408.25</ele><time>2026-04-17T23:19:36.000Z</time></trkpt>
        <trkpt lat="28.7677322" lon="104.6057893"><ele>408.79</ele><time>2026-04-17T23:19:48.000Z</time></trkpt>
        <trkpt lat="28.7677716" lon="104.6059002"><ele>409.1</ele><time>2026-04-17T23:20:10.000Z</time></trkpt>
        <trkpt lat="28.7677733" lon="104.6060128"><ele>408.11</ele><time>2026-04-17T23:20:20.000Z</time></trkpt>
        <trkpt lat="28.7677891" lon="104.6061179"><ele>406.86</ele><time>2026-04-17T23:20:28.000Z</time></trkpt>
        <trkpt lat="28.7678247" lon="104.6062263"><ele>405.07</ele><time>2026-04-17T23:20:40.000Z</time></trkpt>
        <trkpt lat="28.7678717" lon="104.6063297"><ele>402.46</ele><time>2026-04-17T23:21:04.000Z</time></trkpt>
        <trkpt lat="28.7679258" lon="104.6064326"><ele>400.76</ele><time>2026-04-17T23:21:14.000Z</time></trkpt>
        <trkpt lat="28.7680015" lon="104.6065217"><ele>400.04</ele><time>2026-04-17T23:21:24.000Z</time></trkpt>
        <trkpt lat="28.768084" lon="104.6065984"><ele>398.22</ele><time>2026-04-17T23:21:34.000Z</time></trkpt>
        <trkpt lat="28.7681711" lon="104.6066577"><ele>395.59</ele><time>2026-04-17T23:21:44.000Z</time></trkpt>
        <trkpt lat="28.7682448" lon="104.6067443"><ele>392.06</ele><time>2026-04-17T23:21:54.000Z</time></trkpt>
        <trkpt lat="28.7682977" lon="104.6068374"><ele>388.6</ele><time>2026-04-17T23:22:02.000Z</time></trkpt>
        <trkpt lat="28.7683482" lon="104.6069372"><ele>385.76</ele><time>2026-04-17T23:22:16.000Z</time></trkpt>
        <trkpt lat="28.7684041" lon="104.6070362"><ele>382.55</ele><time>2026-04-17T23:22:26.000Z</time></trkpt>
        <trkpt lat="28.7684741" lon="104.6071092"><ele>380.46</ele><time>2026-04-17T23:22:38.000Z</time></trkpt>
        <trkpt lat="28.7685518" lon="104.6071685"><ele>380.26</ele><time>2026-04-17T23:22:56.000Z</time></trkpt>
        <trkpt lat="28.7686418" lon="104.6072191"><ele>380.84</ele><time>2026-04-17T23:23:06.000Z</time></trkpt>
        <trkpt lat="28.7687203" lon="104.6072879"><ele>380.35</ele><time>2026-04-17T23:23:18.000Z</time></trkpt>
        <trkpt lat="28.7687685" lon="104.6073846"><ele>379.04</ele><time>2026-04-17T23:23:26.000Z</time></trkpt>
        <trkpt lat="28.7687794" lon="104.6074336"><ele>378.03</ele><time>2026-04-17T23:23:36.000Z</time></trkpt>
        <trkpt lat="28.7687007" lon="104.6074547"><ele>377.24</ele><time>2026-04-17T23:24:04.000Z</time></trkpt>
        <trkpt lat="28.7685898" lon="104.6074172"><ele>375.25</ele><time>2026-04-17T23:24:14.000Z</time></trkpt>
        <trkpt lat="28.7685173" lon="104.6073795"><ele>373.94</ele><time>2026-04-17T23:24:24.000Z</time></trkpt>
        <trkpt lat="28.7684177" lon="104.60738"><ele>373.4</ele><time>2026-04-17T23:24:34.000Z</time></trkpt>
        <trkpt lat="28.7683415" lon="104.6074683"><ele>372.76</ele><time>2026-04-17T23:24:42.000Z</time></trkpt>
        <trkpt lat="28.7683415" lon="104.6074683"><ele>372.76</ele><time>2026-04-17T23:24:55.000Z</time></trkpt>
        <trkpt lat="28.7684629" lon="104.6073619"><ele>372.39</ele><time>2026-04-17T23:25:19.000Z</time></trkpt>
        <trkpt lat="28.7684629" lon="104.6073619"><ele>372.39</ele><time>2026-04-17T23:25:27.000Z</time></trkpt>
        <trkpt lat="28.768568" lon="104.607391"><ele>371.23</ele><time>2026-04-17T23:26:03.000Z</time></trkpt>
        <trkpt lat="28.7686644" lon="104.6074614"><ele>369.54</ele><time>2026-04-17T23:26:47.000Z</time></trkpt>
        <trkpt lat="28.7686644" lon="104.6074614"><ele>369.54</ele><time>2026-04-17T23:27:39.000Z</time></trkpt>
        <trkpt lat="28.76864" lon="104.607585"><ele>369.95</ele><time>2026-04-17T23:28:03.000Z</time></trkpt>
        <trkpt lat="28.76864" lon="104.607585"><ele>369.95</ele><time>2026-04-17T23:28:27.000Z</time></trkpt>
        <trkpt lat="28.768545" lon="104.607585"><ele>370.23</ele><time>2026-04-17T23:28:37.000Z</time></trkpt>
        <trkpt lat="28.7684754" lon="104.6076188"><ele>369.4</ele><time>2026-04-17T23:28:57.000Z</time></trkpt>
        <trkpt lat="28.7685106" lon="104.6076831"><ele>367.64</ele><time>2026-04-17T23:29:35.000Z</time></trkpt>
        <trkpt lat="28.7685536" lon="104.6077759"><ele>366.67</ele><time>2026-04-17T23:29:47.000Z</time></trkpt>
        <trkpt lat="28.768581" lon="104.6078851"><ele>365.91</ele><time>2026-04-17T23:29:59.000Z</time></trkpt>
        <trkpt lat="28.7685829" lon="104.6080001"><ele>365.65</ele><time>2026-04-17T23:30:11.000Z</time></trkpt>
        <trkpt lat="28.7685793" lon="104.6081149"><ele>365.07</ele><time>2026-04-17T23:30:25.000Z</time></trkpt>
        <trkpt lat="28.7685581" lon="104.6082229"><ele>363.28</ele><time>2026-04-17T23:30:35.000Z</time></trkpt>
        <trkpt lat="28.7685424" lon="104.60833"><ele>360.92</ele><time>2026-04-17T23:30:51.000Z</time></trkpt>
        <trkpt lat="28.7686103" lon="104.608383"><ele>356.48</ele><time>2026-04-17T23:31:03.000Z</time></trkpt>
        <trkpt lat="28.7686928" lon="104.6084399"><ele>353.05</ele><time>2026-04-17T23:31:21.000Z</time></trkpt>
        <trkpt lat="28.7687889" lon="104.6084987"><ele>349.93</ele><time>2026-04-17T23:31:33.000Z</time></trkpt>
        <trkpt lat="28.7688905" lon="104.6085534"><ele>347.38</ele><time>2026-04-17T23:31:45.000Z</time></trkpt>
        <trkpt lat="28.7689679" lon="104.6086422"><ele>345.5</ele><time>2026-04-17T23:31:55.000Z</time></trkpt>
        <trkpt lat="28.7690212" lon="104.6087352"><ele>344.03</ele><time>2026-04-17T23:32:05.000Z</time></trkpt>
        <trkpt lat="28.7690574" lon="104.6088333"><ele>343.98</ele><time>2026-04-17T23:32:13.000Z</time></trkpt>
        <trkpt lat="28.7691365" lon="104.608902"><ele>344.37</ele><time>2026-04-17T23:32:27.000Z</time></trkpt>
        <trkpt lat="28.7692093" lon="104.6089717"><ele>343.83</ele><time>2026-04-17T23:32:39.000Z</time></trkpt>
        <trkpt lat="28.7692507" lon="104.6090668"><ele>344.5</ele><time>2026-04-17T23:33:05.000Z</time></trkpt>
        <trkpt lat="28.7692616" lon="104.6091754"><ele>344.54</ele><time>2026-04-17T23:33:17.000Z</time></trkpt>
        <trkpt lat="28.7692941" lon="104.6092791"><ele>343.11</ele><time>2026-04-17T23:33:41.000Z</time></trkpt>
        <trkpt lat="28.769337" lon="104.6093859"><ele>341.21</ele><time>2026-04-17T23:33:51.000Z</time></trkpt>
        <trkpt lat="28.7693913" lon="104.6094822"><ele>339.87</ele><time>2026-04-17T23:34:01.000Z</time></trkpt>
        <trkpt lat="28.7694781" lon="104.609558"><ele>338.55</ele><time>2026-04-17T23:34:11.000Z</time></trkpt>
        <trkpt lat="28.7695633" lon="104.6096166"><ele>336.98</ele><time>2026-04-17T23:34:21.000Z</time></trkpt>
        <trkpt lat="28.7696582" lon="104.6096702"><ele>336.21</ele><time>2026-04-17T23:34:31.000Z</time></trkpt>
        <trkpt lat="28.7696582" lon="104.6096702"><ele>336.21</ele><time>2026-04-17T23:35:17.000Z</time></trkpt>
        <trkpt lat="28.7697885" lon="104.6098424"><ele>336.47</ele><time>2026-04-17T23:35:19.000Z</time></trkpt>
        <trkpt lat="28.7697885" lon="104.6098424"><ele>336.47</ele><time>2026-04-17T23:35:31.000Z</time></trkpt>
        <trkpt lat="28.7698388" lon="104.6099568"><ele>337.47</ele><time>2026-04-17T23:35:57.000Z</time></trkpt>
        <trkpt lat="28.7698663" lon="104.6100732"><ele>337.74</ele><time>2026-04-17T23:36:07.000Z</time></trkpt>
        <trkpt lat="28.769888" lon="104.6101859"><ele>337.72</ele><time>2026-04-17T23:36:17.000Z</time></trkpt>
        <trkpt lat="28.7699156" lon="104.6102887"><ele>337.97</ele><time>2026-04-17T23:36:29.000Z</time></trkpt>
        <trkpt lat="28.7699279" lon="104.6103924"><ele>338.28</ele><time>2026-04-17T23:36:37.000Z</time></trkpt>
        <trkpt lat="28.7699313" lon="104.6105219"><ele>338.98</ele><time>2026-04-17T23:36:47.000Z</time></trkpt>
        <trkpt lat="28.7699099" lon="104.6106333"><ele>338.39</ele><time>2026-04-17T23:36:57.000Z</time></trkpt>
        <trkpt lat="28.7698604" lon="104.6107206"><ele>337.88</ele><time>2026-04-17T23:37:13.000Z</time></trkpt>
        <trkpt lat="28.7698604" lon="104.6107206"><ele>337.88</ele><time>2026-04-17T23:38:01.000Z</time></trkpt>
        <trkpt lat="28.7698604" lon="104.6107206"><ele>337.88</ele><time>2026-04-17T23:38:07.000Z</time></trkpt>
        <trkpt lat="28.7698604" lon="104.6107206"><ele>337.88</ele><time>2026-04-17T23:38:47.000Z</time></trkpt>
        <trkpt lat="28.7698604" lon="104.6107206"><ele>337.88</ele><time>2026-04-17T23:39:35.000Z</time></trkpt>
        <trkpt lat="28.7698604" lon="104.6107206"><ele>337.88</ele><time>2026-04-17T23:40:17.000Z</time></trkpt>
        <trkpt lat="28.7698604" lon="104.6107206"><ele>337.88</ele><time>2026-04-17T23:40:43.000Z</time></trkpt>
        <trkpt lat="28.7698604" lon="104.6107206"><ele>337.88</ele><time>2026-04-17T23:41:33.000Z</time></trkpt>
        <trkpt lat="28.76982" lon="104.610815"><ele>337.33</ele><time>2026-04-17T23:46:21.000Z</time></trkpt>
        <trkpt lat="28.76982" lon="104.610815"><ele>337.33</ele><time>2026-04-17T23:46:27.000Z</time></trkpt>
        <trkpt lat="28.7698083" lon="104.6109217"><ele>337.49</ele><time>2026-04-17T23:46:37.000Z</time></trkpt>
        <trkpt lat="28.7698164" lon="104.611034"><ele>338.91</ele><time>2026-04-17T23:46:43.000Z</time></trkpt>
        <trkpt lat="28.7698807" lon="104.6111177"><ele>339.9</ele><time>2026-04-17T23:46:53.000Z</time></trkpt>
        <trkpt lat="28.7699565" lon="104.611195"><ele>339.98</ele><time>2026-04-17T23:47:05.000Z</time></trkpt>
        <trkpt lat="28.7700506" lon="104.6112395"><ele>340.16</ele><time>2026-04-17T23:47:37.000Z</time></trkpt>
        <trkpt lat="28.7701217" lon="104.6113106"><ele>339.58</ele><time>2026-04-17T23:47:45.000Z</time></trkpt>
        <trkpt lat="28.7702032" lon="104.6113737"><ele>339.54</ele><time>2026-04-17T23:47:53.000Z</time></trkpt>
        <trkpt lat="28.7702936" lon="104.6114037"><ele>339.61</ele><time>2026-04-17T23:48:03.000Z</time></trkpt>
        <trkpt lat="28.7703954" lon="104.6114345"><ele>339.69</ele><time>2026-04-17T23:48:13.000Z</time></trkpt>
        <trkpt lat="28.770493" lon="104.611475"><ele>339.78</ele><time>2026-04-17T23:48:25.000Z</time></trkpt>
        <trkpt lat="28.7705856" lon="104.6115139"><ele>340.09</ele><time>2026-04-17T23:48:33.000Z</time></trkpt>
        <trkpt lat="28.7706748" lon="104.6115522"><ele>339.84</ele><time>2026-04-17T23:48:41.000Z</time></trkpt>
        <trkpt lat="28.7707741" lon="104.6115928"><ele>338.87</ele><time>2026-04-17T23:48:49.000Z</time></trkpt>
        <trkpt lat="28.7708711" lon="104.6115868"><ele>338.11</ele><time>2026-04-17T23:48:55.000Z</time></trkpt>
        <trkpt lat="28.7709492" lon="104.6115149"><ele>337.55</ele><time>2026-04-17T23:49:09.000Z</time></trkpt>
        <trkpt lat="28.771038" lon="104.6114514"><ele>337.53</ele><time>2026-04-17T23:49:17.000Z</time></trkpt>
        <trkpt lat="28.7711315" lon="104.611426"><ele>338.07</ele><time>2026-04-17T23:49:25.000Z</time></trkpt>
        <trkpt lat="28.7712318" lon="104.6114517"><ele>338.43</ele><time>2026-04-17T23:49:35.000Z</time></trkpt>
        <trkpt lat="28.771333" lon="104.6114539"><ele>338.8</ele><time>2026-04-17T23:49:43.000Z</time></trkpt>
        <trkpt lat="28.771434" lon="104.6114228"><ele>338.37</ele><time>2026-04-17T23:49:53.000Z</time></trkpt>
        <trkpt lat="28.7715283" lon="104.6113967"><ele>338.81</ele><time>2026-04-17T23:50:01.000Z</time></trkpt>
        <trkpt lat="28.7716326" lon="104.6113452"><ele>339.07</ele><time>2026-04-17T23:50:09.000Z</time></trkpt>
        <trkpt lat="28.7717257" lon="104.6112875"><ele>339.9</ele><time>2026-04-17T23:50:17.000Z</time></trkpt>
        <trkpt lat="28.7717819" lon="104.6111979"><ele>340.97</ele><time>2026-04-17T23:50:25.000Z</time></trkpt>
        <trkpt lat="28.7718474" lon="104.6111003"><ele>342.23</ele><time>2026-04-17T23:50:35.000Z</time></trkpt>
        <trkpt lat="28.7719186" lon="104.6110286"><ele>343.04</ele><time>2026-04-17T23:50:43.000Z</time></trkpt>
        <trkpt lat="28.7719863" lon="104.6109517"><ele>343.15</ele><time>2026-04-17T23:50:51.000Z</time></trkpt>
        <trkpt lat="28.772039" lon="104.6108675"><ele>343.56</ele><time>2026-04-17T23:50:59.000Z</time></trkpt>
        <trkpt lat="28.7720639" lon="104.6107605"><ele>344.35</ele><time>2026-04-17T23:51:09.000Z</time></trkpt>
        <trkpt lat="28.7720795" lon="104.6106519"><ele>343.08</ele><time>2026-04-17T23:51:19.000Z</time></trkpt>
        <trkpt lat="28.7721314" lon="104.6105542"><ele>341.67</ele><time>2026-04-17T23:51:29.000Z</time></trkpt>
        <trkpt lat="28.7721993" lon="104.6104763"><ele>340.48</ele><time>2026-04-17T23:51:41.000Z</time></trkpt>
        <trkpt lat="28.7722895" lon="104.6104444"><ele>339.11</ele><time>2026-04-17T23:51:51.000Z</time></trkpt>
        <trkpt lat="28.7723839" lon="104.6104444"><ele>337.43</ele><time>2026-04-17T23:52:01.000Z</time></trkpt>
        <trkpt lat="28.7724865" lon="104.6104742"><ele>336.43</ele><time>2026-04-17T23:52:13.000Z</time></trkpt>
        <trkpt lat="28.772587" lon="104.6105015"><ele>335.99</ele><time>2026-04-17T23:52:23.000Z</time></trkpt>
        <trkpt lat="28.7726882" lon="104.6104981"><ele>335.48</ele><time>2026-04-17T23:52:33.000Z</time></trkpt>
        <trkpt lat="28.7727653" lon="104.6104342"><ele>334.75</ele><time>2026-04-17T23:52:45.000Z</time></trkpt>
        <trkpt lat="28.7727896" lon="104.6103277"><ele>334.21</ele><time>2026-04-17T23:52:55.000Z</time></trkpt>
        <trkpt lat="28.7727981" lon="104.6102132"><ele>334.08</ele><time>2026-04-17T23:53:05.000Z</time></trkpt>
        <trkpt lat="28.7727907" lon="104.6101012"><ele>334.99</ele><time>2026-04-17T23:53:13.000Z</time></trkpt>
        <trkpt lat="28.7727952" lon="104.6099867"><ele>336.41</ele><time>2026-04-17T23:53:23.000Z</time></trkpt>
        <trkpt lat="28.7727888" lon="104.6098663"><ele>338.65</ele><time>2026-04-17T23:53:35.000Z</time></trkpt>
        <trkpt lat="28.7727815" lon="104.6097471"><ele>340.73</ele><time>2026-04-17T23:53:47.000Z</time></trkpt>
        <trkpt lat="28.7727736" lon="104.6096228"><ele>342.22</ele><time>2026-04-17T23:53:59.000Z</time></trkpt>
        <trkpt lat="28.7727847" lon="104.6095132"><ele>342.3</ele><time>2026-04-17T23:54:07.000Z</time></trkpt>
        <trkpt lat="28.7728219" lon="104.6094071"><ele>342.39</ele><time>2026-04-17T23:54:15.000Z</time></trkpt>
        <trkpt lat="28.7728565" lon="104.6092941"><ele>342.05</ele><time>2026-04-17T23:54:25.000Z</time></trkpt>
        <trkpt lat="28.7728857" lon="104.609183"><ele>341.12</ele><time>2026-04-17T23:54:35.000Z</time></trkpt>
        <trkpt lat="28.7729346" lon="104.6090804"><ele>339.65</ele><time>2026-04-17T23:54:45.000Z</time></trkpt>
        <trkpt lat="28.7730094" lon="104.6089921"><ele>336.79</ele><time>2026-04-17T23:54:53.000Z</time></trkpt>
        <trkpt lat="28.7730548" lon="104.6088984"><ele>334.6</ele><time>2026-04-17T23:55:01.000Z</time></trkpt>
        <trkpt lat="28.7731151" lon="104.6088081"><ele>332.97</ele><time>2026-04-17T23:55:11.000Z</time></trkpt>
        <trkpt lat="28.773165" lon="104.6087099"><ele>331.47</ele><time>2026-04-17T23:55:23.000Z</time></trkpt>
        <trkpt lat="28.773165" lon="104.6087099"><ele>331.47</ele><time>2026-04-17T23:56:13.000Z</time></trkpt>
        <trkpt lat="28.7732483" lon="104.6087633"><ele>331.1</ele><time>2026-04-17T23:56:29.000Z</time></trkpt>
        <trkpt lat="28.7732483" lon="104.6087633"><ele>331.1</ele><time>2026-04-17T23:57:27.000Z</time></trkpt>
        <trkpt lat="28.773305" lon="104.6088583"><ele>329.51</ele><time>2026-04-17T23:57:39.000Z</time></trkpt>
        <trkpt lat="28.7733053" lon="104.6089773"><ele>328.21</ele><time>2026-04-17T23:57:51.000Z</time></trkpt>
        <trkpt lat="28.7732711" lon="104.6090967"><ele>327.91</ele><time>2026-04-17T23:58:01.000Z</time></trkpt>
        <trkpt lat="28.7732346" lon="104.6092163"><ele>328.76</ele><time>2026-04-17T23:58:11.000Z</time></trkpt>
        <trkpt lat="28.7732229" lon="104.6093356"><ele>329.38</ele><time>2026-04-17T23:58:23.000Z</time></trkpt>
        <trkpt lat="28.7732345" lon="104.6094458"><ele>329.82</ele><time>2026-04-17T23:58:33.000Z</time></trkpt>
        <trkpt lat="28.773233" lon="104.6094924"><ele>329.64</ele><time>2026-04-17T23:58:43.000Z</time></trkpt>
        <trkpt lat="28.773269" lon="104.6095812"><ele>329.49</ele><time>2026-04-17T23:58:59.000Z</time></trkpt>
        <trkpt lat="28.77329" lon="104.6096867"><ele>329.24</ele><time>2026-04-17T23:59:09.000Z</time></trkpt>
        <trkpt lat="28.7733121" lon="104.6098029"><ele>329.22</ele><time>2026-04-17T23:59:23.000Z</time></trkpt>
        <trkpt lat="28.7733355" lon="104.6099145"><ele>330.24</ele><time>2026-04-17T23:59:33.000Z</time></trkpt>
        <trkpt lat="28.7733706" lon="104.6100319"><ele>331.56</ele><time>2026-04-17T23:59:43.000Z</time></trkpt>
        <trkpt lat="28.7734234" lon="104.6101361"><ele>333.34</ele><time>2026-04-17T23:59:55.000Z</time></trkpt>
        <trkpt lat="28.7734858" lon="104.6102299"><ele>335.34</ele><time>2026-04-18T00:00:05.000Z</time></trkpt>
        <trkpt lat="28.7735365" lon="104.6103204"><ele>336.79</ele><time>2026-04-18T00:00:15.000Z</time></trkpt>
        <trkpt lat="28.7736131" lon="104.6103879"><ele>338.34</ele><time>2026-04-18T00:00:29.000Z</time></trkpt>
        <trkpt lat="28.7736927" lon="104.6104677"><ele>340.04</ele><time>2026-04-18T00:00:39.000Z</time></trkpt>
        <trkpt lat="28.7737621" lon="104.6105498"><ele>341.01</ele><time>2026-04-18T00:00:49.000Z</time></trkpt>
        <trkpt lat="28.773823" lon="104.6106304"><ele>341.31</ele><time>2026-04-18T00:00:59.000Z</time></trkpt>
        <trkpt lat="28.7738734" lon="104.6107167"><ele>341.48</ele><time>2026-04-18T00:01:11.000Z</time></trkpt>
        <trkpt lat="28.7739443" lon="104.6107838"><ele>341.57</ele><time>2026-04-18T00:01:23.000Z</time></trkpt>
        <trkpt lat="28.7740284" lon="104.6108223"><ele>340.64</ele><time>2026-04-18T00:01:33.000Z</time></trkpt>
        <trkpt lat="28.7741193" lon="104.6108526"><ele>339.46</ele><time>2026-04-18T00:01:51.000Z</time></trkpt>
        <trkpt lat="28.7742203" lon="104.6108519"><ele>339.95</ele><time>2026-04-18T00:02:11.000Z</time></trkpt>
        <trkpt lat="28.7743203" lon="104.6108275"><ele>340.57</ele><time>2026-04-18T00:02:21.000Z</time></trkpt>
        <trkpt lat="28.7744251" lon="104.6108234"><ele>341.57</ele><time>2026-04-18T00:02:31.000Z</time></trkpt>
        <trkpt lat="28.7745312" lon="104.610818"><ele>342.45</ele><time>2026-04-18T00:02:43.000Z</time></trkpt>
        <trkpt lat="28.774626" lon="104.6108112"><ele>342.99</ele><time>2026-04-18T00:02:53.000Z</time></trkpt>
        <trkpt lat="28.7747175" lon="104.6108028"><ele>343.08</ele><time>2026-04-18T00:03:03.000Z</time></trkpt>
        <trkpt lat="28.774812" lon="104.6107891"><ele>343.52</ele><time>2026-04-18T00:03:13.000Z</time></trkpt>
        <trkpt lat="28.7749243" lon="104.6107735"><ele>344.2</ele><time>2026-04-18T00:03:25.000Z</time></trkpt>
        <trkpt lat="28.7750306" lon="104.6107865"><ele>344.72</ele><time>2026-04-18T00:03:37.000Z</time></trkpt>
        <trkpt lat="28.7751326" lon="104.6108115"><ele>343.89</ele><time>2026-04-18T00:03:47.000Z</time></trkpt>
        <trkpt lat="28.7752227" lon="104.6108696"><ele>343.29</ele><time>2026-04-18T00:03:57.000Z</time></trkpt>
        <trkpt lat="28.7752799" lon="104.6109546"><ele>342.82</ele><time>2026-04-18T00:04:05.000Z</time></trkpt>
        <trkpt lat="28.775292" lon="104.6110794"><ele>342.51</ele><time>2026-04-18T00:04:19.000Z</time></trkpt>
        <trkpt lat="28.7752847" lon="104.6111972"><ele>343.02</ele><time>2026-04-18T00:04:35.000Z</time></trkpt>
        <trkpt lat="28.7752715" lon="104.61131"><ele>344.91</ele><time>2026-04-18T00:04:47.000Z</time></trkpt>
        <trkpt lat="28.7752053" lon="104.6113993"><ele>347.1</ele><time>2026-04-18T00:05:03.000Z</time></trkpt>
        <trkpt lat="28.775138" lon="104.6114808"><ele>348.95</ele><time>2026-04-18T00:05:19.000Z</time></trkpt>
        <trkpt lat="28.7750603" lon="104.6115541"><ele>350.56</ele><time>2026-04-18T00:05:55.000Z</time></trkpt>
        <trkpt lat="28.775006" lon="104.6116504"><ele>353.25</ele><time>2026-04-18T00:06:09.000Z</time></trkpt>
        <trkpt lat="28.7749683" lon="104.6117637"><ele>355.76</ele><time>2026-04-18T00:06:17.000Z</time></trkpt>
        <trkpt lat="28.7749262" lon="104.611881"><ele>357.8</ele><time>2026-04-18T00:06:27.000Z</time></trkpt>
        <trkpt lat="28.7748627" lon="104.6119886"><ele>358.57</ele><time>2026-04-18T00:06:39.000Z</time></trkpt>
        <trkpt lat="28.7748285" lon="104.6120328"><ele>358.11</ele><time>2026-04-18T00:07:01.000Z</time></trkpt>
        <trkpt lat="28.7748636" lon="104.6121177"><ele>358.02</ele><time>2026-04-18T00:07:39.000Z</time></trkpt>
        <trkpt lat="28.7749367" lon="104.6121947"><ele>357.71</ele><time>2026-04-18T00:07:49.000Z</time></trkpt>
        <trkpt lat="28.7749944" lon="104.6122848"><ele>356.2</ele><time>2026-04-18T00:07:59.000Z</time></trkpt>
        <trkpt lat="28.7750482" lon="104.6123873"><ele>354.35</ele><time>2026-04-18T00:08:11.000Z</time></trkpt>
        <trkpt lat="28.775069" lon="104.6124976"><ele>353</ele><time>2026-04-18T00:08:35.000Z</time></trkpt>
        <trkpt lat="28.7750685" lon="104.6126084"><ele>352.78</ele><time>2026-04-18T00:09:19.000Z</time></trkpt>
        <trkpt lat="28.7750655" lon="104.6127198"><ele>351.97</ele><time>2026-04-18T00:09:37.000Z</time></trkpt>
        <trkpt lat="28.7750655" lon="104.6127198"><ele>351.97</ele><time>2026-04-18T00:10:23.000Z</time></trkpt>
        <trkpt lat="28.77504" lon="104.6128417"><ele>350.61</ele><time>2026-04-18T00:10:31.000Z</time></trkpt>
        <trkpt lat="28.77504" lon="104.6128417"><ele>350.61</ele><time>2026-04-18T00:11:07.000Z</time></trkpt>
        <trkpt lat="28.77504" lon="104.6128417"><ele>350.61</ele><time>2026-04-18T00:11:59.000Z</time></trkpt>
        <trkpt lat="28.7751129" lon="104.6130318"><ele>347.03</ele><time>2026-04-18T00:12:07.000Z</time></trkpt>
        <trkpt lat="28.7751129" lon="104.6130318"><ele>347.03</ele><time>2026-04-18T00:12:21.000Z</time></trkpt>
        <trkpt lat="28.7751798" lon="104.6131112"><ele>345.08</ele><time>2026-04-18T00:12:39.000Z</time></trkpt>
        <trkpt lat="28.7751287" lon="104.613142"><ele>342.98</ele><time>2026-04-18T00:12:55.000Z</time></trkpt>
        <trkpt lat="28.7750318" lon="104.6131295"><ele>339.89</ele><time>2026-04-18T00:13:07.000Z</time></trkpt>
        <trkpt lat="28.774907" lon="104.6131165"><ele>337.06</ele><time>2026-04-18T00:13:21.000Z</time></trkpt>
        <trkpt lat="28.7747963" lon="104.6130836"><ele>335.01</ele><time>2026-04-18T00:13:33.000Z</time></trkpt>
        <trkpt lat="28.7747963" lon="104.6130836"><ele>335.01</ele><time>2026-04-18T00:14:15.000Z</time></trkpt>
        <trkpt lat="28.7747033" lon="104.6131217"><ele>333.33</ele><time>2026-04-18T00:14:43.000Z</time></trkpt>
        <trkpt lat="28.7747033" lon="104.6131217"><ele>333.33</ele><time>2026-04-18T00:14:45.000Z</time></trkpt>
        <trkpt lat="28.77466" lon="104.613215"><ele>330.31</ele><time>2026-04-18T00:14:59.000Z</time></trkpt>
        <trkpt lat="28.7745941" lon="104.6132844"><ele>329.14</ele><time>2026-04-18T00:15:19.000Z</time></trkpt>
        <trkpt lat="28.7745062" lon="104.6133096"><ele>328.44</ele><time>2026-04-18T00:15:31.000Z</time></trkpt>
        <trkpt lat="28.7744803" lon="104.6133911"><ele>328.25</ele><time>2026-04-18T00:15:49.000Z</time></trkpt>
        <trkpt lat="28.7745176" lon="104.6134858"><ele>328.66</ele><time>2026-04-18T00:16:01.000Z</time></trkpt>
        <trkpt lat="28.7745472" lon="104.6136065"><ele>329.58</ele><time>2026-04-18T00:16:25.000Z</time></trkpt>
        <trkpt lat="28.7745703" lon="104.6137227"><ele>331.01</ele><time>2026-04-18T00:16:37.000Z</time></trkpt>
        <trkpt lat="28.774574" lon="104.6138412"><ele>330.92</ele><time>2026-04-18T00:16:53.000Z</time></trkpt>
        <trkpt lat="28.774576" lon="104.6139547"><ele>329.28</ele><time>2026-04-18T00:17:03.000Z</time></trkpt>
        <trkpt lat="28.7745768" lon="104.6140656"><ele>327.22</ele><time>2026-04-18T00:17:11.000Z</time></trkpt>
        <trkpt lat="28.7745926" lon="104.6141844"><ele>324.93</ele><time>2026-04-18T00:17:21.000Z</time></trkpt>
        <trkpt lat="28.7746043" lon="104.6143087"><ele>322.17</ele><time>2026-04-18T00:17:33.000Z</time></trkpt>
        <trkpt lat="28.7746112" lon="104.614422"><ele>319.56</ele><time>2026-04-18T00:17:45.000Z</time></trkpt>
        <trkpt lat="28.7746175" lon="104.6145334"><ele>317.3</ele><time>2026-04-18T00:17:55.000Z</time></trkpt>
        <trkpt lat="28.7746213" lon="104.6146481"><ele>315.79</ele><time>2026-04-18T00:18:05.000Z</time></trkpt>
        <trkpt lat="28.7746142" lon="104.6147544"><ele>314.29</ele><time>2026-04-18T00:18:17.000Z</time></trkpt>
        <trkpt lat="28.7746223" lon="104.6148587"><ele>312.96</ele><time>2026-04-18T00:18:31.000Z</time></trkpt>
        <trkpt lat="28.774634" lon="104.6149678"><ele>311.39</ele><time>2026-04-18T00:18:51.000Z</time></trkpt>
        <trkpt lat="28.7746291" lon="104.6150715"><ele>308.98</ele><time>2026-04-18T00:19:07.000Z</time></trkpt>
        <trkpt lat="28.7746427" lon="104.6151782"><ele>306.97</ele><time>2026-04-18T00:19:21.000Z</time></trkpt>
        <trkpt lat="28.7746763" lon="104.6152811"><ele>305.56</ele><time>2026-04-18T00:19:37.000Z</time></trkpt>
        <trkpt lat="28.7747228" lon="104.615374"><ele>303.82</ele><time>2026-04-18T00:19:53.000Z</time></trkpt>
        <trkpt lat="28.7747788" lon="104.615457"><ele>302.91</ele><time>2026-04-18T00:20:05.000Z</time></trkpt>
        <trkpt lat="28.7748381" lon="104.6155396"><ele>302.3</ele><time>2026-04-18T00:20:19.000Z</time></trkpt>
        <trkpt lat="28.774876" lon="104.6156343"><ele>300.84</ele><time>2026-04-18T00:20:33.000Z</time></trkpt>
        <trkpt lat="28.7749289" lon="104.6157388"><ele>298.37</ele><time>2026-04-18T00:20:43.000Z</time></trkpt>
        <trkpt lat="28.7750007" lon="104.6158227"><ele>295.89</ele><time>2026-04-18T00:20:59.000Z</time></trkpt>
        <trkpt lat="28.7750863" lon="104.6158846"><ele>294.43</ele><time>2026-04-18T00:21:19.000Z</time></trkpt>
        <trkpt lat="28.7751796" lon="104.6159455"><ele>292.65</ele><time>2026-04-18T00:21:33.000Z</time></trkpt>
        <trkpt lat="28.7752428" lon="104.616025"><ele>290.57</ele><time>2026-04-18T00:21:41.000Z</time></trkpt>
        <trkpt lat="28.7752063" lon="104.6161061"><ele>287.87</ele><time>2026-04-18T00:21:53.000Z</time></trkpt>
        <trkpt lat="28.7751205" lon="104.6161759"><ele>285.04</ele><time>2026-04-18T00:22:03.000Z</time></trkpt>
        <trkpt lat="28.7750278" lon="104.6162311"><ele>282.92</ele><time>2026-04-18T00:22:13.000Z</time></trkpt>
        <trkpt lat="28.774946" lon="104.6163066"><ele>281.66</ele><time>2026-04-18T00:22:33.000Z</time></trkpt>
        <trkpt lat="28.7748678" lon="104.6163829"><ele>280.9</ele><time>2026-04-18T00:22:47.000Z</time></trkpt>
        <trkpt lat="28.7747961" lon="104.6164652"><ele>279.48</ele><time>2026-04-18T00:23:05.000Z</time></trkpt>
        <trkpt lat="28.7747346" lon="104.6165482"><ele>275.06</ele><time>2026-04-18T00:23:21.000Z</time></trkpt>
        <trkpt lat="28.7747169" lon="104.6166521"><ele>270.17</ele><time>2026-04-18T00:23:33.000Z</time></trkpt>
        <trkpt lat="28.7746494" lon="104.616717"><ele>266.61</ele><time>2026-04-18T00:23:43.000Z</time></trkpt>
        <trkpt lat="28.7745648" lon="104.6167577"><ele>264.29</ele><time>2026-04-18T00:23:53.000Z</time></trkpt>
        <trkpt lat="28.7744626" lon="104.6167808"><ele>263.43</ele><time>2026-04-18T00:24:05.000Z</time></trkpt>
        <trkpt lat="28.7744626" lon="104.6167808"><ele>263.43</ele><time>2026-04-18T00:24:06.000Z</time></trkpt>
      </trkseg>
  </trk>
</gpx>